Time;durP1;ratioP1;P1;durP2;ratioP2;P2;SDS_P1;SDS_P2;PMS_P1;PMS_P2;Temp;Humidity;BMP_temperature;BMP_pressure;BME280_temperature;BME280_humidity;BME280_pressure;Samples;Min_cycle;Max_cycle;Signal;HPM_P1;HPM_P2
2023/01/14 00:09:13;;;;;;;0.13;0.00;;;0.20;99.90;;;;;;20907722;28;20029;-58
2023/01/14 00:19:15;;;;;;;0.20;0.03;;;-0.10;99.90;;;;;;20876155;28;20037;-59
2023/01/14 00:29:19;;;;;;;0.10;0.00;;;-0.10;99.90;;;;;;20906419;28;20040;-59
2023/01/14 00:39:21;;;;;;;0.52;0.10;;;-0.20;99.90;;;;;;20905570;28;20037;-59
2023/01/14 00:49:24;;;;;;;0.00;0.00;;;-0.20;99.90;;;;;;20922298;28;20086;-59
2023/01/14 00:59:25;;;;;;;0.10;0.00;;;0.50;99.90;;;;;;20902829;28;20497;-60
2023/01/14 01:09:27;;;;;;;0.10;0.00;;;0.50;99.90;;;;;;20962985;28;20041;-60
2023/01/14 01:19:29;;;;;;;0.28;0.10;;;0.30;99.90;;;;;;20968007;28;20435;-59
2023/01/14 01:29:31;;;;;;;0.08;0.00;;;0.30;99.90;;;;;;20985987;28;20127;-60
2023/01/14 01:39:32;;;;;;;0.00;0.00;;;0.40;99.90;;;;;;20926471;28;20033;-59
2023/01/14 01:49:37;;;;;;;0.00;0.00;;;0.50;99.90;;;;;;20937563;28;20032;-59
2023/01/14 01:59:43;;;;;;;0.10;0.00;;;0.70;99.90;;;;;;21001819;28;20455;-59
2023/01/14 02:09:45;;;;;;;0.40;0.10;;;1.00;99.90;;;;;;20981885;28;20044;-59
2023/01/14 02:20:22;;;;;;;0.10;0.00;;;1.30;99.90;;;;;;20972412;28;20036;-59
2023/01/14 02:30:45;;;;;;;0.20;0.10;;;1.20;99.50;;;;;;20998350;28;20450;-60
2023/01/14 02:41:12;;;;;;;0.20;0.00;;;1.70;99.30;;;;;;20923723;28;20033;-58
2023/01/14 02:51:15;;;;;;;1.02;0.00;;;1.70;99.40;;;;;;20896867;28;20036;-59
2023/01/14 03:01:19;;;;;;;0.10;0.00;;;1.50;99.10;;;;;;20904621;28;20094;-59
2023/01/14 03:11:23;;;;;;;0.17;0.00;;;1.40;98.30;;;;;;20996996;28;20082;-60
2023/01/14 03:21:30;;;;;;;0.00;0.00;;;1.60;97.00;;;;;;20976691;28;20017;-59
2023/01/14 03:31:35;;;;;;;0.00;0.00;;;1.90;96.10;;;;;;20994232;28;20412;-59
2023/01/14 03:52:44;;;;;;;0.10;0.00;;;1.80;96.00;;;;;;20909869;28;20033;-59
2023/01/14 04:02:47;;;;;;;0.10;0.00;;;2.00;95.20;;;;;;20572214;28;20078;-59
2023/01/14 04:23:08;;;;;;;0.00;0.00;;;2.20;94.40;;;;;;20636506;28;20407;-60
2023/01/14 04:33:10;;;;;;;0.10;0.10;;;2.10;94.80;;;;;;20732178;28;20052;-59
2023/01/14 04:43:11;;;;;;;0.00;0.00;;;2.10;93.50;;;;;;20828883;28;20327;-59
2023/01/14 04:53:20;;;;;;;0.30;0.10;;;2.20;92.80;;;;;;20942224;28;20036;-59
2023/01/14 05:03:22;;;;;;;0.00;0.00;;;2.20;92.60;;;;;;20913369;28;20460;-59
2023/01/14 05:13:23;;;;;;;0.00;0.00;;;2.10;92.50;;;;;;20986068;28;20089;-60
2023/01/14 05:23:25;;;;;;;0.00;0.00;;;1.90;92.90;;;;;;20916377;28;20033;-60
2023/01/14 05:33:27;;;;;;;0.00;0.00;;;2.10;92.00;;;;;;20902390;28;20028;-58
2023/01/14 05:53:48;;;;;;;0.47;0.00;;;2.10;92.00;;;;;;20891906;28;20036;-59
2023/01/14 06:14:10;;;;;;;0.00;0.00;;;1.40;93.20;;;;;;20901524;28;20531;-60
2023/01/14 06:24:12;;;;;;;0.00;0.00;;;0.90;95.50;;;;;;20938191;28;20032;-59
2023/01/14 06:34:13;;;;;;;0.00;0.00;;;0.10;96.30;;;;;;20930259;28;20389;-59
2023/01/14 06:44:17;;;;;;;0.00;0.00;;;-0.40;97.50;;;;;;20915374;28;20045;-60
2023/01/14 06:54:18;;;;;;;0.00;0.00;;;-0.60;98.30;;;;;;20963268;28;20044;-59
2023/01/14 07:04:20;;;;;;;0.00;0.00;;;-0.90;98.80;;;;;;20934434;28;20040;-59
2023/01/14 07:14:21;;;;;;;0.00;0.00;;;-1.00;99.40;;;;;;20912491;28;20036;-59
2023/01/14 07:24:23;;;;;;;0.00;0.00;;;-1.10;99.40;;;;;;20988385;28;20094;-59
2023/01/14 07:34:24;;;;;;;0.00;0.00;;;-1.20;99.90;;;;;;20989523;28;20120;-59
2023/01/14 07:44:26;;;;;;;0.63;0.10;;;-1.10;99.90;;;;;;20910509;28;20060;-59
2023/01/14 07:54:28;;;;;;;0.10;0.00;;;-1.00;99.90;;;;;;20962018;28;20052;-59
2023/01/14 08:04:30;;;;;;;0.20;0.00;;;-0.40;99.90;;;;;;20909128;28;20045;-60
2023/01/14 08:14:32;;;;;;;1.17;0.10;;;0.40;99.90;;;;;;20908527;28;20048;-59
2023/01/14 08:24:33;;;;;;;0.17;0.05;;;1.30;99.90;;;;;;20957976;28;20091;-60
2023/01/14 08:34:35;;;;;;;0.20;0.10;;;2.00;98.80;;;;;;20890976;28;20075;-58
2023/01/14 08:44:37;;;;;;;0.40;0.10;;;2.50;98.50;;;;;;20889976;28;20029;-58
2023/01/14 08:54:38;;;;;;;0.50;0.20;;;3.70;98.70;;;;;;20907746;28;20037;-59
2023/01/14 09:04:40;;;;;;;0.77;0.40;;;4.70;99.90;;;;;;20901608;28;20053;-59
2023/01/14 09:25:02;;;;;;;3.58;1.20;;;5.80;99.90;;;;;;20902157;28;20363;-60
2023/01/14 09:35:04;;;;;;;1.90;0.82;;;6.20;99.90;;;;;;20901745;28;20029;-59
2023/01/14 09:45:19;;;;;;;1.50;0.85;;;6.40;99.90;;;;;;20901951;28;20033;-59
2023/01/14 09:55:39;;;;;;;3.55;1.00;;;6.50;99.90;;;;;;20984584;28;20040;-59
2023/01/14 10:05:44;;;;;;;2.13;1.40;;;6.70;99.90;;;;;;20996981;28;20040;-59
2023/01/14 10:15:52;;;;;;;2.03;1.50;;;6.80;99.90;;;;;;20990955;28;20453;-58
2023/01/14 10:25:55;;;;;;;2.30;1.20;;;7.00;99.90;;;;;;20999266;28;20036;-59
2023/01/14 10:36:02;;;;;;;4.22;1.70;;;7.50;99.90;;;;;;20982182;28;20052;-59
2023/01/14 10:46:05;;;;;;;2.47;1.80;;;7.60;99.90;;;;;;20923023;28;20108;-58
2023/01/14 10:56:07;;;;;;;2.63;1.60;;;7.60;99.90;;;;;;20929751;28;20044;-58
2023/01/14 11:06:17;;;;;;;2.03;1.65;;;7.90;99.90;;;;;;20887246;28;20433;-58
2023/01/14 11:16:21;;;;;;;2.60;1.83;;;7.80;99.90;;;;;;20915306;28;20025;-59
2023/01/14 11:26:32;;;;;;;2.10;1.33;;;7.90;99.90;;;;;;20994170;28;20493;-59
2023/01/14 11:36:34;;;;;;;3.00;1.92;;;7.90;99.90;;;;;;20940204;28;20025;-58
2023/01/14 11:46:41;;;;;;;3.08;2.08;;;8.20;99.90;;;;;;20922626;28;20044;-59
2023/01/14 11:56:44;;;;;;;3.20;2.30;;;8.20;99.90;;;;;;20991456;28;20045;-59
2023/01/14 12:06:54;;;;;;;3.50;2.42;;;8.50;99.90;;;;;;20990759;28;20443;-58
2023/01/14 12:17:30;;;;;;;4.45;2.55;;;8.80;99.90;;;;;;20963047;28;20508;-58
2023/01/14 12:27:59;;;;;;;4.20;3.03;;;8.90;99.90;;;;;;20986041;28;20051;-58
2023/01/14 12:45:41;;;;;;;5.28;3.08;;;9.00;99.90;;;;;;20955381;28;20068;-59
2023/01/14 12:48:31;;;;;;;3.90;2.92;;;9.20;99.90;;;;;;20905209;28;20071;-60
2023/01/14 12:58:36;;;;;;;5.22;3.03;;;8.80;99.90;;;;;;20904741;28;20041;-58
2023/01/14 13:08:38;;;;;;;4.57;3.22;;;8.90;99.90;;;;;;20903205;28;20044;-59
2023/01/14 13:18:45;;;;;;;4.85;3.20;;;8.80;99.90;;;;;;20903508;28;20429;-59
2023/01/14 13:29:22;;;;;;;4.40;3.03;;;8.20;99.90;;;;;;20902487;28;20069;-59
2023/01/14 13:39:24;;;;;;;2.70;1.85;;;7.70;99.90;;;;;;20888636;28;20379;-60
2023/01/14 13:49:34;;;;;;;2.22;1.52;;;7.20;99.90;;;;;;20938166;28;20417;-59
2023/01/14 13:59:38;;;;;;;1.10;0.80;;;6.60;99.90;;;;;;20984960;28;20070;-60
2023/01/14 14:09:40;;;;;;;3.20;2.30;;;6.00;99.90;;;;;;20983484;28;20036;-60
2023/01/14 14:19:49;;;;;;;2.60;1.42;;;5.70;99.90;;;;;;20974672;28;20070;-60
2023/01/14 14:29:52;;;;;;;3.75;1.67;;;5.50;99.90;;;;;;20983275;28;20477;-60
2023/01/14 14:39:55;;;;;;;3.28;2.08;;;5.30;99.90;;;;;;20933950;28;20040;-60
2023/01/14 14:49:57;;;;;;;4.00;2.67;;;5.10;99.90;;;;;;20940748;28;20478;-60
2023/01/14 15:00:05;;;;;;;6.03;3.22;;;4.70;99.90;;;;;;20914613;28;20041;-60
2023/01/14 15:10:17;;;;;;;7.10;3.80;;;4.30;99.90;;;;;;20895265;28;20040;-60
2023/01/14 15:20:19;;;;;;;2.85;1.80;;;3.80;99.90;;;;;;20912603;28;20029;-60
2023/01/14 15:30:31;;;;;;;3.33;2.25;;;3.30;99.90;;;;;;20911065;28;20075;-60
2023/01/14 15:40:37;;;;;;;3.50;2.10;;;2.70;99.90;;;;;;20910696;28;20032;-60
2023/01/14 15:50:41;;;;;;;4.78;1.88;;;2.40;99.90;;;;;;20909631;28;20044;-60
2023/01/14 16:00:46;;;;;;;3.33;1.90;;;2.30;99.90;;;;;;20911646;28;20125;-60
2023/01/14 16:10:47;;;;;;;3.88;2.20;;;2.00;99.90;;;;;;20908159;28;20091;-60
2023/01/14 16:20:50;;;;;;;3.92;2.28;;;1.50;99.90;;;;;;20936337;28;20090;-60
2023/01/14 16:30:52;;;;;;;4.72;2.47;;;1.10;99.90;;;;;;20906549;28;20028;-60
2023/01/14 16:40:53;;;;;;;4.68;2.50;;;0.90;99.90;;;;;;20931055;28;20143;-60
2023/01/14 16:51:07;;;;;;;5.97;2.50;;;0.80;99.90;;;;;;20903995;28;20037;-60
2023/01/14 17:01:08;;;;;;;3.75;2.10;;;0.70;99.90;;;;;;20903537;28;20045;-60
2023/01/14 17:21:31;;;;;;;3.07;1.80;;;0.70;99.90;;;;;;20902528;28;20100;-60
2023/01/14 17:31:33;;;;;;;6.05;2.30;;;0.70;99.90;;;;;;20874677;28;20028;-60
2023/01/14 17:51:54;;;;;;;2.90;1.80;;;0.30;99.90;;;;;;20901337;28;20045;-59
2023/01/14 18:01:56;;;;;;;2.63;1.27;;;0.20;99.90;;;;;;20900385;28;20067;-60
2023/01/14 18:11:58;;;;;;;3.22;1.48;;;0.00;99.90;;;;;;20900880;28;20033;-60
2023/01/14 18:22:00;;;;;;;3.30;1.67;;;-0.20;99.90;;;;;;20887780;28;20044;-60
2023/01/14 18:32:02;;;;;;;1.80;1.17;;;-0.30;99.90;;;;;;20914631;28;20117;-59
2023/01/14 18:42:04;;;;;;;3.53;1.25;;;-0.40;99.90;;;;;;20915012;28;20449;-59
2023/01/14 18:52:06;;;;;;;3.75;1.02;;;-0.30;99.90;;;;;;20914086;28;20029;-59
2023/01/14 19:02:12;;;;;;;5.75;1.10;;;-0.40;99.90;;;;;;20914166;28;20065;-59
2023/01/14 19:12:17;;;;;;;1.50;1.00;;;-0.40;99.90;;;;;;20913103;28;20036;-59
2023/01/14 19:22:19;;;;;;;1.17;0.77;;;-0.40;99.90;;;;;;20972267;28;20033;-59
2023/01/14 19:32:21;;;;;;;1.80;0.90;;;-0.50;99.90;;;;;;20933443;28;20082;-59
2023/01/14 19:42:23;;;;;;;3.35;0.98;;;-0.40;99.90;;;;;;20924953;28;20040;-59
2023/01/14 19:52:24;;;;;;;1.65;0.75;;;-0.50;99.90;;;;;;20936524;28;20032;-59
2023/01/14 20:02:27;;;;;;;2.80;0.77;;;-0.60;99.90;;;;;;20952943;28;20097;-59
2023/01/14 20:12:29;;;;;;;1.73;0.90;;;-0.60;99.90;;;;;;20991694;28;20381;-59
2023/01/14 20:22:32;;;;;;;1.95;1.00;;;-0.60;99.90;;;;;;20990192;28;20101;-59
2023/01/14 20:32:36;;;;;;;1.98;0.98;;;-0.60;99.90;;;;;;20990279;28;20330;-58
2023/01/14 20:42:37;;;;;;;3.83;1.20;;;-0.70;99.90;;;;;;20917282;28;20037;-59
2023/01/14 20:52:39;;;;;;;3.08;1.63;;;-0.80;99.90;;;;;;20935271;28;20029;-59
2023/01/14 21:02:41;;;;;;;3.35;1.42;;;-0.80;99.90;;;;;;20926146;28;20556;-60
2023/01/14 21:12:43;;;;;;;3.00;1.63;;;-1.00;99.90;;;;;;20987801;28;20090;-59
2023/01/14 21:22:54;;;;;;;4.10;2.20;;;-1.00;99.90;;;;;;20969061;28;20485;-61
2023/01/14 21:33:00;;;;;;;5.30;2.70;;;-1.00;99.90;;;;;;20868491;28;20519;-60
2023/01/14 21:53:22;;;;;;;4.67;2.87;;;-1.20;99.90;;;;;;20970805;28;20111;-60
2023/01/14 22:03:24;;;;;;;7.43;4.07;;;-1.20;99.90;;;;;;20944473;28;20435;-60
2023/01/14 22:13:25;;;;;;;6.13;4.20;;;-1.20;99.90;;;;;;21000292;28;20037;-59
2023/01/14 22:23:28;;;;;;;11.75;5.20;;;-1.10;99.90;;;;;;20999786;28;20086;-60
2023/01/14 22:33:29;;;;;;;5.43;3.22;;;-1.00;99.90;;;;;;20998721;28;20388;-60
2023/01/14 22:43:31;;;;;;;3.00;1.88;;;-1.00;99.90;;;;;;20919449;28;20036;-59
2023/01/14 22:53:34;;;;;;;3.17;1.90;;;-1.00;99.90;;;;;;20944520;28;20086;-59
2023/01/14 23:03:36;;;;;;;6.43;2.60;;;-1.00;99.90;;;;;;20943677;28;20044;-59
2023/01/14 23:13:42;;;;;;;6.78;3.13;;;-1.00;99.90;;;;;;20996463;28;20098;-61
2023/01/14 23:23:53;;;;;;;4.82;3.13;;;-0.90;99.90;;;;;;20987958;28;20462;-59
2023/01/14 23:33:54;;;;;;;5.25;3.28;;;-0.70;99.90;;;;;;20943613;28;20024;-59
2023/01/14 23:43:58;;;;;;;6.13;3.60;;;-0.40;99.90;;;;;;20893797;28;20547;-59
2023/01/14 23:53:59;;;;;;;6.38;3.80;;;-0.10;99.90;;;;;;20983727;28;20105;-60
